Creve Coeur, Missouri
Current Conditions -  °F | °C
As of 4:51 PM on Thursday 23 Oct 2014 (Local Time) from KSTL Reporting Station
Broken Clouds Broken Clouds  
Wind Chill: 64°   Ceiling: 25000
Heat Index: 64°   Visibility: 10mi
Dew Point: 46°   Wind: 6mph
Humidity: 52%   Direction: 190°S
Pressure: 30.1"   Gusts: NA
Location:  38.66°N, 90.44°W
Report Text: KSTL 232151Z 19005KT 10SM FEW050 SCT140 BKN250 18/08 A3010 RMK AO2 SLP193 T01780078
Loading
Personal Weather Stations






























Interactive Weather Map
Tropical Storm Tracking
New forecast layout! Learn more

10-Day Weather Forecast

Advertisements
Track Severe Weather on mobile